Time;durP1;ratioP1;P1;durP2;ratioP2;P2;SDS_P1;SDS_P2;PMS_P1;PMS_P2;Temp;Humidity;BMP_temperature;BMP_pressure;BME280_temperature;BME280_humidity;BME280_pressure;Samples;Min_cycle;Max_cycle;Signal;HPM_P1;HPM_P2
2022/02/20 00:01:01;;;;;;;18.20;3.78;;;;;;;6.68;79.62;100391.81;5077158;28;20052;-66
2022/02/20 00:03:28;;;;;;;11.63;2.72;;;;;;;6.65;76.61;100400.81;5077102;28;20067;-66
2022/02/20 00:05:55;;;;;;;7.72;2.53;;;;;;;6.66;77.26;100401.66;5077188;28;20043;-66
2022/02/20 00:08:22;;;;;;;15.52;3.30;;;;;;;6.69;76.57;100404.88;5094974;28;20526;-66
2022/02/20 00:10:48;;;;;;;15.68;3.20;;;;;;;6.61;76.79;100417.06;5094513;28;20105;-65
2022/02/20 00:13:16;;;;;;;15.80;3.55;;;;;;;6.59;76.82;100419.81;5094780;28;20426;-65
2022/02/20 00:15:43;;;;;;;13.38;2.95;;;;;;;6.52;75.45;100431.88;5060410;28;20044;-65
2022/02/20 00:18:10;;;;;;;10.23;2.67;;;;;;;6.50;75.07;100444.34;5060253;28;20069;-65
2022/02/20 00:20:37;;;;;;;10.45;3.15;;;;;;;6.47;75.31;100434.91;5056899;28;20037;-65
2022/02/20 00:23:04;;;;;;;19.60;2.67;;;;;;;6.51;72.87;100453.91;5056760;28;20052;-66
2022/02/20 00:25:31;;;;;;;22.27;3.40;;;;;;;6.51;73.60;100453.91;5074130;28;20048;-66
2022/02/20 00:27:58;;;;;;;14.75;3.40;;;;;;;6.50;73.09;100442.53;5073105;28;20033;-65
2022/02/20 00:30:26;;;;;;;10.70;2.67;;;;;;;6.47;73.03;100463.06;5056703;28;20131;-66
2022/02/20 00:32:56;;;;;;;10.95;3.25;;;;;;;6.49;73.37;100454.06;5056491;28;20045;-66
2022/02/20 00:35:23;;;;;;;8.40;3.03;;;;;;;6.50;73.28;100458.34;5073273;28;20040;-66
2022/02/20 00:37:50;;;;;;;7.85;2.65;;;;;;;6.48;72.20;100462.94;5076518;28;20170;-66
2022/02/20 00:40:17;;;;;;;15.75;3.80;;;;;;;6.50;72.81;100474.16;5042233;28;20048;-65
2022/02/20 00:42:44;;;;;;;13.68;3.35;;;;;;;6.50;71.88;100481.25;5094092;28;20048;-65
2022/02/20 00:45:11;;;;;;;17.75;3.42;;;;;;;6.42;72.52;100489.84;5043313;28;20160;-65
2022/02/20 00:47:37;;;;;;;13.88;3.85;;;;;;;6.40;72.80;100515.44;5076234;28;20097;-65
2022/02/20 00:50:06;;;;;;;14.60;4.00;;;;;;;6.38;73.58;100522.66;5094079;28;20048;-65
2022/02/20 00:52:32;;;;;;;12.80;3.25;;;;;;;6.30;73.18;100530.41;5094140;28;20048;-66
2022/02/20 00:54:59;;;;;;;11.75;4.22;;;;;;;6.37;74.47;100526.28;5093459;28;20048;-66
2022/02/20 00:57:28;;;;;;;14.60;4.00;;;;;;;6.27;74.30;100542.03;5094079;28;20488;-65
2022/02/20 00:59:55;;;;;;;11.75;3.90;;;;;;;6.23;74.44;100539.78;5076068;28;20040;-65
2022/02/20 01:02:22;;;;;;;16.23;4.40;;;;;;;6.23;74.86;100555.59;5076044;28;20553;-66
2022/02/20 01:04:51;;;;;;;14.57;4.65;;;;;;;6.24;75.22;100557.25;5059485;28;20052;-66
2022/02/20 01:07:18;;;;;;;19.67;4.85;;;;;;;6.21;75.97;100562.81;5093983;28;20403;-66
2022/02/20 01:09:45;;;;;;;13.10;5.07;;;;;;;6.14;75.14;100559.84;5093359;28;20044;-66
2022/02/20 01:12:13;;;;;;;10.88;4.45;;;;;;;6.08;73.50;100587.53;5076860;28;20048;-65
2022/02/20 01:14:40;;;;;;;19.10;5.00;;;;;;;5.76;73.68;100591.00;5097343;28;20043;-66
2022/02/20 01:17:07;;;;;;;11.02;3.92;;;;;;;5.72;74.12;100604.56;5075861;28;20082;-66
2022/02/20 01:19:33;;;;;;;10.75;3.78;;;;;;;5.63;73.95;100605.31;5042737;28;20044;-66
2022/02/20 01:22:00;;;;;;;9.85;4.65;;;;;;;5.50;74.54;100608.94;5075563;28;20043;-66
2022/02/20 01:24:27;;;;;;;17.70;5.10;;;;;;;5.34;74.22;100613.75;5075154;28;20047;-66
2022/02/20 01:26:53;;;;;;;13.35;4.60;;;;;;;5.26;74.13;100614.38;5059014;28;20044;-65
2022/02/20 01:29:22;;;;;;;12.85;4.35;;;;;;;5.15;73.96;100609.16;5075780;28;20509;-65
2022/02/20 01:31:49;;;;;;;17.50;5.18;;;;;;;5.11;75.65;100621.72;5075631;28;20196;-65
2022/02/20 01:34:16;;;;;;;10.82;4.10;;;;;;;5.00;74.86;100622.56;5066153;28;20040;-65
2022/02/20 01:36:43;;;;;;;17.65;5.03;;;;;;;4.94;75.21;100627.44;5074999;28;20571;-65
2022/02/20 01:39:16;;;;;;;14.63;5.00;;;;;;;4.93;74.92;100646.78;5076574;28;20047;-65
2022/02/20 01:41:43;;;;;;;11.38;4.32;;;;;;;4.84;75.72;100637.00;5092792;28;20071;-65
2022/02/20 01:44:10;;;;;;;11.13;4.10;;;;;;;4.79;75.03;100642.63;5075297;28;20048;-65
2022/02/20 01:46:45;;;;;;;14.80;3.78;;;;;;;4.70;74.92;100648.59;5076263;28;20048;-65
2022/02/20 01:49:14;;;;;;;11.38;2.88;;;;;;;4.71;75.25;100674.75;5075741;28;20048;-65
2022/02/20 01:51:45;;;;;;;14.30;3.45;;;;;;;4.66;73.78;100681.28;5093047;28;20102;-65
2022/02/20 01:54:13;;;;;;;9.13;2.95;;;;;;;4.72;73.85;100675.59;5075214;28;20076;-66
2022/02/20 01:56:45;;;;;;;8.43;2.15;;;;;;;4.68;73.55;100671.53;5060232;28;20052;-65
2022/02/20 01:59:27;;;;;;;7.72;3.20;;;;;;;4.69;73.56;100667.94;5077731;28;20040;-66
2022/02/20 02:02:10;;;;;;;16.20;2.42;;;;;;;4.75;73.69;100672.72;5093093;28;20583;-65
2022/02/20 02:04:42;;;;;;;9.85;2.90;;;;;;;4.77;73.38;100694.47;5093145;28;20499;-65
2022/02/20 02:07:11;;;;;;;8.60;2.30;;;;;;;4.72;73.32;100697.44;5075394;28;20051;-65
2022/02/20 02:09:56;;;;;;;12.55;2.53;;;;;;;4.77;74.39;100703.19;5074985;28;20407;-66
2022/02/20 02:12:44;;;;;;;12.02;2.90;;;;;;;4.72;73.50;100707.13;5092738;28;20043;-65
2022/02/20 02:15:25;;;;;;;16.83;3.25;;;;;;;4.73;73.77;100701.75;5058484;28;20094;-65
2022/02/20 02:18:02;;;;;;;11.85;2.60;;;;;;;4.77;74.68;100724.22;5076627;28;20093;-65
2022/02/20 02:20:49;;;;;;;16.40;3.08;;;;;;;4.76;74.43;100734.84;5077909;28;20499;-65
2022/02/20 02:23:36;;;;;;;10.93;2.65;;;;;;;4.79;74.91;100732.81;5061103;28;20534;-65
2022/02/20 02:26:18;;;;;;;10.07;2.70;;;;;;;4.78;74.98;100725.91;5074543;28;20496;-65
2022/02/20 02:28:52;;;;;;;8.65;2.30;;;;;;;4.74;75.36;100750.72;5076140;28;20044;-66
2022/02/20 02:31:20;;;;;;;12.48;3.15;;;;;;;4.77;75.12;100733.91;5075187;28;20040;-65
2022/02/20 02:33:50;;;;;;;8.32;2.92;;;;;;;4.65;75.92;100740.06;5054690;28;20075;-65
2022/02/20 02:36:17;;;;;;;10.80;2.90;;;;;;;4.68;76.08;100743.31;5054879;28;20082;-65
2022/02/20 02:38:44;;;;;;;7.95;2.80;;;;;;;4.76;75.47;100742.72;5072429;28;20040;-65
2022/02/20 02:41:16;;;;;;;;;;;;;;;4.76;76.66;100745.34;5038288;28;20044;-66
2022/02/20 02:43:51;;;;;;;9.40;2.85;;;;;;;4.72;75.54;100757.06;5055695;28;19920;-66
2022/02/20 02:46:20;;;;;;;11.20;2.95;;;;;;;4.64;76.26;100759.41;5054760;28;20049;-65
2022/02/20 02:48:49;;;;;;;12.15;2.70;;;;;;;4.61;76.30;100763.13;5072389;28;20065;-65
2022/02/20 02:51:18;;;;;;;16.42;3.42;;;;;;;4.67;76.29;100757.38;5073055;28;20040;-64
2022/02/20 02:53:45;;;;;;;18.00;3.50;;;;;;;4.70;76.01;100757.16;5054445;28;20037;-65
2022/02/20 02:56:12;;;;;;;11.23;3.25;;;;;;;4.75;76.35;100754.22;5054466;28;20546;-66
2022/02/20 02:58:39;;;;;;;14.52;2.72;;;;;;;4.77;76.39;100749.66;5054671;28;20132;-65
2022/02/20 03:01:10;;;;;;;10.50;3.65;;;;;;;4.79;76.40;100768.78;5072162;28;20450;-65
2022/02/20 03:03:37;;;;;;;11.40;3.35;;;;;;;4.73;76.25;100753.47;5077769;28;20059;-65
2022/02/20 03:06:09;;;;;;;15.55;3.67;;;;;;;4.83;76.39;100770.22;5045347;28;20117;-66
2022/02/20 03:08:37;;;;;;;19.77;3.40;;;;;;;4.79;76.22;100768.78;5078295;28;20044;-65
2022/02/20 03:11:05;;;;;;;14.95;3.58;;;;;;;4.77;77.26;100770.69;5044731;28;20040;-65
2022/02/20 03:13:34;;;;;;;11.82;3.28;;;;;;;4.70;76.16;100772.94;5078369;28;20048;-66
2022/02/20 03:16:07;;;;;;;20.85;4.00;;;;;;;4.68;76.71;100784.53;5095919;28;20445;-65
2022/02/20 03:18:34;;;;;;;13.38;3.22;;;;;;;4.74;76.01;100786.69;5095965;28;20060;-66
2022/02/20 03:21:08;;;;;;;11.05;2.92;;;;;;;4.77;75.93;100781.22;5045731;28;20556;-65
2022/02/20 03:23:35;;;;;;;15.35;3.50;;;;;;;4.64;75.96;100788.31;5081422;28;20054;-65
2022/02/20 03:26:03;;;;;;;14.77;3.58;;;;;;;4.52;76.39;100795.34;5079650;28;20043;-66
2022/02/20 03:28:35;;;;;;;9.32;3.45;;;;;;;4.50;76.25;100799.88;5095893;28;20051;-65
2022/02/20 03:31:04;;;;;;;17.20;4.03;;;;;;;4.46;76.91;100798.41;5095611;28;20127;-65
2022/02/20 03:33:31;;;;;;;10.40;2.78;;;;;;;4.29;76.79;100797.00;5061321;28;20411;-65
2022/02/20 03:36:00;;;;;;;13.68;3.58;;;;;;;4.39;76.74;100795.41;5095627;28;20457;-66
2022/02/20 03:38:27;;;;;;;11.25;3.47;;;;;;;4.40;76.81;100803.19;5095353;28;20048;-66
2022/02/20 03:40:54;;;;;;;13.57;4.10;;;;;;;4.37;77.08;100805.19;5044367;28;20118;-65
2022/02/20 03:43:27;;;;;;;16.80;3.67;;;;;;;4.34;77.09;100818.53;5062051;28;20068;-65
2022/02/20 03:46:02;;;;;;;15.98;3.80;;;;;;;4.24;77.60;100826.25;5095344;28;20070;-65
2022/02/20 03:48:31;;;;;;;17.40;4.30;;;;;;;4.29;76.94;100812.78;5061587;28;20036;-65
2022/02/20 03:51:09;;;;;;;11.73;3.72;;;;;;;4.39;76.83;100813.78;5062373;28;20032;-66
2022/02/20 03:53:38;;;;;;;15.25;4.10;;;;;;;4.27;77.29;100820.75;5095190;28;20054;-65
2022/02/20 03:56:09;;;;;;;9.43;3.45;;;;;;;4.31;76.80;100808.25;5054803;28;20128;-66
2022/02/20 03:58:39;;;;;;;13.93;3.60;;;;;;;4.34;76.88;100808.03;5053676;28;20041;-66
2022/02/20 04:01:06;;;;;;;17.15;3.85;;;;;;;4.35;77.04;100807.09;5054863;28;20052;-66
2022/02/20 04:03:41;;;;;;;12.57;4.15;;;;;;;4.25;77.78;100803.44;5054802;28;20095;-66
2022/02/20 04:06:08;;;;;;;14.32;3.92;;;;;;;4.16;77.58;100797.06;5055057;28;20048;-66
2022/02/20 04:08:41;;;;;;;13.57;3.90;;;;;;;4.36;77.87;100785.94;5038148;28;20098;-66
2022/02/20 04:11:09;;;;;;;15.90;3.65;;;;;;;4.20;77.27;100799.38;5053198;28;20416;-66
2022/02/20 04:13:55;;;;;;;14.00;3.28;;;;;;;4.19;77.30;100794.22;5053567;28;20045;-66
2022/02/20 04:16:31;;;;;;;16.05;3.50;;;;;;;4.15;78.43;100792.78;5038406;28;20139;-66
2022/02/20 04:18:58;;;;;;;11.57;3.15;;;;;;;4.03;78.62;100782.19;5036945;28;20041;-66
2022/02/20 04:21:26;;;;;;;12.10;3.30;;;;;;;4.10;79.15;100787.03;5053441;28;20416;-66
2022/02/20 04:24:04;;;;;;;12.90;3.72;;;;;;;4.05;78.71;100784.72;5023829;28;20401;-66
2022/02/20 04:26:30;;;;;;;13.20;3.35;;;;;;;4.07;79.36;100784.59;5054153;28;20123;-66
2022/02/20 04:28:57;;;;;;;10.07;3.55;;;;;;;4.16;78.76;100787.41;5053152;28;20044;-66
2022/02/20 04:31:24;;;;;;;14.70;3.70;;;;;;;4.08;78.13;100779.25;5069649;28;20045;-66
2022/02/20 04:33:57;;;;;;;8.95;3.50;;;;;;;4.00;79.33;100778.94;5049498;28;20103;-66
2022/02/20 04:36:25;;;;;;;10.70;3.78;;;;;;;4.00;78.08;100766.69;5053089;28;20051;-66
2022/02/20 04:38:57;;;;;;;10.65;3.88;;;;;;;3.92;79.56;100776.06;5054127;28;20069;-66
2022/02/20 04:41:25;;;;;;;14.88;3.92;;;;;;;3.99;80.38;100775.50;5052516;28;20049;-66
2022/02/20 04:43:53;;;;;;;14.77;4.63;;;;;;;3.99;79.06;100782.53;5053066;28;20037;-66
2022/02/20 04:46:20;;;;;;;15.45;5.22;;;;;;;3.89;79.77;100778.91;5054177;28;20103;-66
2022/02/20 04:48:49;;;;;;;12.32;4.90;;;;;;;3.86;79.48;100777.34;5054003;28;20044;-66
2022/02/20 04:51:36;;;;;;;16.63;5.68;;;;;;;3.86;80.21;100769.47;5052869;28;20072;-66
2022/02/20 04:54:04;;;;;;;16.25;5.50;;;;;;;3.87;80.84;100758.00;5060854;28;20063;-66
2022/02/20 04:56:31;;;;;;;15.98;5.80;;;;;;;3.94;80.46;100755.78;5059232;28;20500;-66
2022/02/20 04:58:58;;;;;;;16.48;6.50;;;;;;;3.97;80.42;100753.78;5059274;28;20044;-66
2022/02/20 05:01:37;;;;;;;18.55;6.35;;;;;;;4.07;80.35;100750.47;5093935;28;20119;-66
2022/02/20 05:04:21;;;;;;;19.73;6.20;;;;;;;4.09;80.47;100748.56;5093968;28;20044;-66
2022/02/20 05:06:50;;;;;;;21.83;6.60;;;;;;;4.12;79.90;100736.06;5075961;28;20048;-66
2022/02/20 05:09:23;;;;;;;17.75;6.63;;;;;;;4.22;80.32;100738.84;5075908;28;20062;-66
2022/02/20 05:11:56;;;;;;;17.23;6.40;;;;;;;4.22;80.21;100726.56;5093732;28;20046;-66
2022/02/20 05:14:23;;;;;;;15.07;6.20;;;;;;;4.27;80.19;100725.38;5059390;28;20052;-66
2022/02/20 05:16:50;;;;;;;19.55;6.68;;;;;;;4.27;79.98;100726.22;5093651;28;20500;-66
2022/02/20 05:19:26;;;;;;;19.77;6.05;;;;;;;4.30;79.87;100722.53;5093648;28;20032;-66
2022/02/20 05:21:56;;;;;;;15.63;6.57;;;;;;;4.31;80.12;100725.06;5075627;28;20051;-66
2022/02/20 05:24:26;;;;;;;18.08;7.05;;;;;;;4.32;80.19;100725.88;5075293;28;20040;-66
2022/02/20 05:26:54;;;;;;;19.83;7.80;;;;;;;4.32;79.40;100708.34;5093234;28;20068;-66
2022/02/20 05:29:25;;;;;;;20.42;7.80;;;;;;;4.35;80.31;100707.28;5075887;28;20054;-66
2022/02/20 05:31:55;;;;;;;20.67;8.60;;;;;;;4.33;79.80;100698.66;5076855;28;20115;-65
2022/02/20 05:34:31;;;;;;;14.73;7.75;;;;;;;4.39;80.17;100701.66;5098131;28;20439;-66
2022/02/20 05:36:58;;;;;;;19.83;7.80;;;;;;;4.55;80.71;100693.47;5075788;28;20052;-66
2022/02/20 05:39:36;;;;;;;18.63;8.10;;;;;;;4.53;81.18;100695.38;5093479;28;20040;-66
2022/02/20 05:42:03;;;;;;;25.75;8.38;;;;;;;4.56;81.27;100683.78;5075250;28;20127;-66
2022/02/20 05:44:33;;;;;;;17.52;8.38;;;;;;;4.48;81.54;100686.19;5049564;28;20080;-66
2022/02/20 05:46:59;;;;;;;17.40;8.32;;;;;;;4.57;81.09;100680.22;5075282;28;20047;-66
2022/02/20 05:49:27;;;;;;;19.98;8.20;;;;;;;4.49;81.37;100672.06;5092278;28;20052;-66
2022/02/20 05:51:58;;;;;;;17.15;8.77;;;;;;;4.49;81.38;100661.56;5093415;28;20514;-66
2022/02/20 05:54:37;;;;;;;21.10;8.30;;;;;;;4.57;80.35;100646.91;5092881;28;20048;-67
2022/02/20 05:57:06;;;;;;;16.60;8.45;;;;;;;4.40;81.47;100649.97;5075136;28;20450;-67
2022/02/20 05:59:36;;;;;;;21.00;8.32;;;;;;;4.43;82.24;100652.38;5075642;28;20047;-67
2022/02/20 06:02:04;;;;;;;18.17;8.68;;;;;;;4.45;82.86;100652.25;5075367;28;20051;-66
2022/02/20 06:04:30;;;;;;;15.60;8.25;;;;;;;4.42;83.84;100646.28;5052916;28;20040;-66
2022/02/20 06:07:11;;;;;;;17.55;8.18;;;;;;;4.34;84.39;100646.03;5055734;28;20049;-67
2022/02/20 06:09:58;;;;;;;24.23;8.85;;;;;;;4.36;84.19;100640.66;5092459;28;20044;-67
2022/02/20 06:12:31;;;;;;;21.73;8.32;;;;;;;4.35;84.69;100625.88;5076292;28;20048;-67
2022/02/20 06:15:18;;;;;;;22.20;8.88;;;;;;;4.35;85.46;100618.81;5077743;28;20115;-66
2022/02/20 06:18:02;;;;;;;19.90;8.32;;;;;;;4.48;85.44;100612.63;5046356;28;20048;-66
2022/02/20 06:20:48;;;;;;;22.05;8.95;;;;;;;4.44;85.78;100612.03;5092798;28;20049;-66
2022/02/20 06:23:35;;;;;;;22.25;8.25;;;;;;;4.43;85.81;100605.09;5092956;28;20063;-66
2022/02/20 06:26:19;;;;;;;26.13;9.20;;;;;;;4.41;86.48;100614.88;5074957;28;20369;-66
2022/02/20 06:28:47;;;;;;;23.20;8.95;;;;;;;4.46;86.96;100604.00;5092953;28;20519;-66
2022/02/20 06:31:17;;;;;;;27.95;9.05;;;;;;;4.53;87.64;100599.94;5092731;28;20071;-66
2022/02/20 06:33:47;;;;;;;23.60;9.80;;;;;;;4.48;87.92;100602.13;5074694;28;20078;-66
2022/02/20 06:36:13;;;;;;;26.08;8.80;;;;;;;4.57;87.88;100589.09;5092695;28;20109;-66
2022/02/20 06:38:44;;;;;;;25.70;8.90;;;;;;;4.59;88.48;100589.00;5062281;28;20044;-66
2022/02/20 06:41:11;;;;;;;24.13;9.25;;;;;;;4.58;88.92;100575.03;5061946;28;20048;-67
2022/02/20 06:43:44;;;;;;;31.30;8.13;;;;;;;4.71;88.98;100566.16;5078826;28;20036;-67
2022/02/20 06:46:32;;;;;;;25.42;8.48;;;;;;;4.79;89.85;100551.47;5081548;28;20060;-66
2022/02/20 06:49:06;;;;;;;34.50;8.70;;;;;;;4.79;89.68;100550.63;5078306;28;20442;-66
2022/02/20 06:51:53;;;;;;;22.60;8.60;;;;;;;4.83;89.57;100535.47;5081546;28;20130;-68
2022/02/20 06:54:39;;;;;;;33.95;7.90;;;;;;;4.93;90.51;100531.13;5096216;28;20055;-66
2022/02/20 06:57:11;;;;;;;32.67;8.00;;;;;;;4.99;91.04;100520.13;5096314;28;20399;-67
2022/02/20 06:59:38;;;;;;;26.90;7.50;;;;;;;5.12;91.08;100519.97;5096319;28;20054;-67
2022/02/20 07:02:05;;;;;;;27.00;7.18;;;;;;;5.13;91.49;100517.22;5078287;28;20051;-66
2022/02/20 07:04:32;;;;;;;30.42;7.65;;;;;;;5.17;91.99;100523.06;5096097;28;20046;-66
2022/02/20 07:06:59;;;;;;;29.17;7.72;;;;;;;5.24;91.46;100516.34;5057940;28;20052;-66
2022/02/20 07:09:26;;;;;;;29.10;7.03;;;;;;;5.36;91.78;100507.44;5075977;28;20036;-66
2022/02/20 07:11:52;;;;;;;32.42;7.78;;;;;;;5.38;91.64;100502.91;5075721;28;20099;-68
2022/02/20 07:14:19;;;;;;;29.98;8.48;;;;;;;5.49;91.46;100504.63;5058209;28;20507;-65
2022/02/20 07:16:47;;;;;;;26.95;7.10;;;;;;;5.57;92.65;100501.38;5075686;28;20041;-67
2022/02/20 07:19:13;;;;;;;29.67;7.75;;;;;;;5.59;92.55;100507.34;5069027;28;20036;-67
2022/02/20 07:21:40;;;;;;;30.63;6.80;;;;;;;5.78;92.61;100501.38;5061527;28;20109;-67
2022/02/20 07:24:07;;;;;;;38.00;6.90;;;;;;;5.81;92.63;100516.09;5077842;28;20047;-67
2022/02/20 07:26:33;;;;;;;32.85;6.03;;;;;;;5.89;92.22;100506.56;5077822;28;20465;-66
2022/02/20 07:29:00;;;;;;;26.48;4.97;;;;;;;5.80;93.01;100514.41;5077797;28;20407;-66
2022/02/20 07:31:28;;;;;;;21.73;5.57;;;;;;;5.87;93.11;100503.22;5095842;28;20047;-66
2022/02/20 07:33:55;;;;;;;20.80;3.72;;;;;;;6.11;92.94;100515.31;5077431;28;20044;-67
2022/02/20 07:36:22;;;;;;;23.60;4.05;;;;;;;6.21;92.78;100510.94;5077952;28;20048;-67
2022/02/20 07:38:49;;;;;;;26.85;3.80;;;;;;;6.40;93.05;100517.25;5044094;28;20450;-66
2022/02/20 07:41:16;;;;;;;32.72;4.07;;;;;;;6.53;92.60;100508.19;5045168;28;20474;-66
2022/02/20 07:43:44;;;;;;;17.40;3.38;;;;;;;6.60;92.05;100518.16;5065714;28;20059;-65
2022/02/20 07:46:10;;;;;;;18.90;3.17;;;;;;;6.76;91.25;100509.75;5096127;28;20040;-65
2022/02/20 07:48:40;;;;;;;25.70;3.72;;;;;;;6.82;91.88;100506.56;5057072;28;20086;-65
2022/02/20 07:51:07;;;;;;;24.25;3.13;;;;;;;6.93;91.57;100517.03;5075237;28;20048;-66
2022/02/20 07:53:35;;;;;;;22.92;3.63;;;;;;;6.97;92.24;100509.66;5040997;28;20128;-66
2022/02/20 07:56:02;;;;;;;17.83;2.63;;;;;;;7.04;91.13;100511.63;5037347;28;20524;-66
2022/02/20 07:58:28;;;;;;;19.00;3.22;;;;;;;7.01;91.42;100508.44;5053750;28;20124;-66
2022/02/20 08:00:55;;;;;;;19.98;3.20;;;;;;;7.12;91.60;100500.38;5037584;28;20048;-66
2022/02/20 08:03:22;;;;;;;25.58;3.22;;;;;;;7.06;92.05;100499.13;5054610;28;20580;-66
2022/02/20 08:05:49;;;;;;;21.17;3.25;;;;;;;7.08;91.82;100497.19;5049831;28;20496;-67
2022/02/20 08:08:16;;;;;;;26.02;4.00;;;;;;;7.12;91.46;100505.66;5056578;28;20048;-67
2022/02/20 08:10:43;;;;;;;21.00;3.97;;;;;;;7.19;91.55;100498.88;5056491;28;20435;-68
2022/02/20 08:13:09;;;;;;;20.73;2.85;;;;;;;7.18;92.31;100485.81;5073771;28;20041;-65
2022/02/20 08:15:36;;;;;;;17.35;2.88;;;;;;;7.28;91.97;100489.28;5056946;28;20040;-65
2022/02/20 08:18:03;;;;;;;20.45;3.45;;;;;;;7.24;91.48;100496.66;5057007;28;20040;-65
2022/02/20 08:20:30;;;;;;;18.05;3.10;;;;;;;7.34;91.61;100474.72;5056381;28;20046;-66
2022/02/20 08:22:57;;;;;;;17.52;3.20;;;;;;;7.32;92.39;100476.66;5056849;28;20063;-66
2022/02/20 08:25:24;;;;;;;17.90;2.95;;;;;;;7.35;92.15;100465.81;5073239;28;20048;-66
2022/02/20 08:27:51;;;;;;;19.58;3.20;;;;;;;7.36;91.81;100478.03;5074574;28;20045;-66
2022/02/20 08:30:18;;;;;;;16.20;3.30;;;;;;;7.40;91.70;100480.25;5056696;28;20043;-66
2022/02/20 08:32:45;;;;;;;12.73;2.50;;;;;;;7.46;91.98;100473.59;5073237;28;20036;-67
2022/02/20 08:35:12;;;;;;;16.42;2.42;;;;;;;7.40;92.29;100456.50;5056365;28;20048;-66
2022/02/20 08:37:43;;;;;;;16.23;3.55;;;;;;;7.43;92.52;100461.50;5072752;28;20048;-66
2022/02/20 08:40:12;;;;;;;16.17;2.92;;;;;;;7.60;92.89;100453.84;5057046;28;20500;-66
2022/02/20 08:42:38;;;;;;;21.77;3.03;;;;;;;7.59;92.47;100450.38;5072796;28;20488;-66
2022/02/20 08:45:06;;;;;;;16.10;3.00;;;;;;;7.60;92.32;100452.00;5056748;28;20059;-67
2022/02/20 08:47:33;;;;;;;12.20;2.95;;;;;;;7.64;92.14;100439.38;5072686;28;20048;-67
2022/02/20 08:50:04;;;;;;;10.05;2.38;;;;;;;7.71;92.06;100455.47;5073581;28;20086;-66
2022/02/20 08:52:31;;;;;;;12.43;2.38;;;;;;;7.73;91.80;100451.75;5072604;28;20097;-66
2022/02/20 08:54:58;;;;;;;13.20;2.80;;;;;;;7.73;91.72;100442.97;5084729;28;20063;-67
2022/02/20 08:57:25;;;;;;;21.52;3.35;;;;;;;7.76;92.35;100445.34;5075754;28;20040;-67
2022/02/20 08:59:52;;;;;;;11.65;3.20;;;;;;;7.79;92.31;100445.06;5058974;28;20101;-66
2022/02/20 09:02:19;;;;;;;17.35;3.50;;;;;;;7.78;92.53;100451.28;5075846;28;20075;-66
2022/02/20 09:04:47;;;;;;;13.15;2.95;;;;;;;7.77;92.46;100450.47;5039042;28;20045;-66
2022/02/20 09:07:14;;;;;;;15.07;3.20;;;;;;;7.82;93.01;100436.81;5056037;28;20040;-66
2022/02/20 09:09:41;;;;;;;15.05;3.08;;;;;;;7.81;92.13;100443.09;5056130;28;20102;-66
2022/02/20 09:12:08;;;;;;;14.73;3.00;;;;;;;7.86;92.04;100444.34;5055738;28;20051;-66
2022/02/20 09:14:35;;;;;;;11.55;2.65;;;;;;;7.91;92.18;100454.44;5073651;28;20066;-66
2022/02/20 09:17:02;;;;;;;16.98;2.80;;;;;;;7.92;92.06;100450.84;5055727;28;20044;-66
2022/02/20 09:19:29;;;;;;;17.00;3.65;;;;;;;7.96;91.84;100460.13;5068856;28;20089;-66
2022/02/20 09:21:56;;;;;;;9.52;2.60;;;;;;;7.99;91.79;100443.19;5042769;28;20097;-66
2022/02/20 09:24:23;;;;;;;18.90;2.97;;;;;;;8.02;91.78;100440.22;5075472;28;20048;-65
2022/02/20 09:26:50;;;;;;;13.65;3.10;;;;;;;8.12;91.27;100440.22;5093971;28;20051;-66
2022/02/20 09:29:18;;;;;;;15.15;3.03;;;;;;;8.05;91.32;100446.06;5093321;28;20040;-66
2022/02/20 09:31:45;;;;;;;9.30;2.25;;;;;;;8.08;91.10;100442.31;5075790;28;20068;-66
2022/02/20 09:34:13;;;;;;;15.15;3.28;;;;;;;8.15;90.92;100440.75;5093334;28;20044;-66
2022/02/20 09:36:40;;;;;;;9.75;2.30;;;;;;;8.15;90.63;100450.47;5093487;28;20044;-66
2022/02/20 09:39:07;;;;;;;11.02;2.40;;;;;;;8.19;90.44;100444.78;5058566;28;20093;-66
2022/02/20 09:41:36;;;;;;;10.40;2.42;;;;;;;8.26;90.46;100452.94;5075331;28;20044;-65
2022/02/20 09:44:03;;;;;;;8.93;2.38;;;;;;;8.23;89.85;100451.41;5093269;28;20446;-66
2022/02/20 09:46:30;;;;;;;11.43;2.63;;;;;;;8.34;89.38;100442.47;5093132;28;20133;-66
2022/02/20 09:48:58;;;;;;;10.10;2.20;;;;;;;8.36;89.58;100437.03;5038247;28;20043;-66
2022/02/20 09:51:28;;;;;;;8.02;2.20;;;;;;;8.36;90.09;100423.81;5039460;28;20041;-66
2022/02/20 09:53:56;;;;;;;12.82;2.33;;;;;;;8.29;90.94;100430.66;5072841;28;20051;-65
2022/02/20 09:56:24;;;;;;;10.38;2.20;;;;;;;8.24;92.19;100429.31;5039495;28;20040;-66
2022/02/20 09:58:53;;;;;;;9.35;2.30;;;;;;;8.17;92.46;100430.03;5046925;28;20049;-66
2022/02/20 10:01:20;;;;;;;12.05;2.40;;;;;;;8.07;92.98;100430.88;5057540;28;20071;-66
2022/02/20 10:03:49;;;;;;;12.90;2.63;;;;;;;8.12;93.53;100427.00;5093757;28;20048;-66
2022/02/20 10:06:19;;;;;;;13.82;2.30;;;;;;;8.08;92.64;100442.31;5058543;28;20055;-66
2022/02/20 10:11:26;;;;;;;10.75;2.47;;;;;;;8.13;93.25;100410.16;5090316;27;20414;-66
2022/02/20 10:13:55;;;;;;;13.65;2.72;;;;;;;8.14;92.82;100412.66;5063280;28;20446;-65
2022/02/20 10:16:25;;;;;;;13.27;2.60;;;;;;;8.24;92.82;100412.59;5089121;28;20051;-65
2022/02/20 10:19:03;;;;;;;7.93;2.13;;;;;;;8.29;92.16;100425.38;5089097;28;20493;-66
2022/02/20 10:21:50;;;;;;;14.85;3.03;;;;;;;8.40;91.83;100417.25;5075199;28;20058;-66
2022/02/20 10:24:38;;;;;;;9.05;2.10;;;;;;;8.45;90.60;100441.47;5090311;28;20044;-66
2022/02/20 10:27:25;;;;;;;11.05;2.40;;;;;;;8.53;90.04;100407.22;5075406;28;20071;-65
2022/02/20 10:30:16;;;;;;;16.60;3.15;;;;;;;8.63;89.99;100409.78;5089018;28;20502;-66
2022/02/20 10:32:44;;;;;;;11.52;2.55;;;;;;;8.72;89.08;100414.16;5090192;28;20036;-67
2022/02/20 10:35:14;;;;;;;12.82;2.45;;;;;;;8.84;88.98;100410.34;5072357;28;20044;-66
2022/02/20 10:37:42;;;;;;;12.18;2.20;;;;;;;8.92;87.45;100395.53;5089874;28;20091;-65
2022/02/20 10:40:29;;;;;;;12.88;2.63;;;;;;;9.11;87.50;100413.03;5089139;28;20036;-66
2022/02/20 10:43:00;;;;;;;12.85;2.55;;;;;;;9.08;87.22;100403.59;5088667;28;20052;-65
2022/02/20 10:45:37;;;;;;;14.52;2.47;;;;;;;9.05;86.07;100414.47;5088998;28;20052;-66
2022/02/20 10:48:14;;;;;;;11.23;2.20;;;;;;;9.15;85.53;100393.22;5089834;28;20040;-66
2022/02/20 10:50:41;;;;;;;13.20;2.50;;;;;;;9.22;85.76;100392.47;5088572;28;20047;-66
2022/02/20 10:53:14;;;;;;;11.65;2.47;;;;;;;9.23;85.54;100401.22;5085289;28;20504;-66
2022/02/20 10:55:42;;;;;;;;;;;;;;;9.30;85.61;100394.34;5072899;28;20381;-67
2022/02/20 10:58:14;;;;;;;9.98;2.03;;;;;;;9.21;85.59;100401.38;5089545;28;20331;-67
2022/02/20 11:00:47;;;;;;;10.07;2.25;;;;;;;9.23;84.18;100406.53;5088451;28;20036;-67
2022/02/20 11:03:14;;;;;;;12.93;2.45;;;;;;;9.29;84.69;100415.66;5088388;28;20051;-67
2022/02/20 11:05:42;;;;;;;8.85;2.28;;;;;;;9.24;84.53;100413.50;5089426;28;20101;-67
2022/02/20 11:08:10;;;;;;;14.27;2.25;;;;;;;9.24;85.03;100413.50;5089420;28;20032;-67
2022/02/20 11:10:39;;;;;;;8.38;2.10;;;;;;;9.25;85.35;100409.03;5071238;28;20048;-67
2022/02/20 11:13:08;;;;;;;13.77;2.30;;;;;;;9.27;84.78;100407.03;5088088;28;20036;-66
2022/02/20 11:15:35;;;;;;;10.68;2.25;;;;;;;9.25;85.29;100404.56;5088307;28;20549;-67
2022/02/20 11:18:04;;;;;;;14.93;2.00;;;;;;;9.22;84.93;100397.75;5088112;28;20040;-67
2022/02/20 11:20:33;;;;;;;12.38;2.38;;;;;;;9.22;84.65;100412.78;5087383;28;20040;-67
2022/02/20 11:23:03;;;;;;;5.82;1.92;;;;;;;9.19;84.91;100392.75;5075144;28;20048;-66
2022/02/20 11:25:31;;;;;;;17.38;2.60;;;;;;;9.29;85.88;100402.44;5074551;28;20068;-66
2022/02/20 11:28:00;;;;;;;13.23;2.53;;;;;;;9.18;85.12;100385.78;5074546;28;20052;-66
2022/02/20 11:30:28;;;;;;;8.07;2.00;;;;;;;9.20;85.44;100381.22;5074346;28;20040;-67
2022/02/20 11:33:00;;;;;;;11.25;2.28;;;;;;;9.07;86.10;100383.41;5058000;28;20461;-66
2022/02/20 11:35:27;;;;;;;11.60;2.20;;;;;;;9.09;86.51;100378.78;5075304;28;20036;-66
2022/02/20 11:37:56;;;;;;;17.65;2.92;;;;;;;9.05;86.42;100373.97;5074373;28;20048;-67
2022/02/20 11:40:28;;;;;;;10.55;2.35;;;;;;;9.06;85.99;100376.47;5074475;28;20040;-67
2022/02/20 11:46:01;;;;;;;17.17;3.35;;;;;;;9.14;85.99;100350.03;5090628;27;20892;-66